createdAt,value
2022-11-20T00:00:25.296Z,59.62
2022-11-20T00:02:51.945Z,59.61
2022-11-20T00:05:19.249Z,59.87
2022-11-20T00:07:45.875Z,59.96
2022-11-20T00:10:14.684Z,59.96
2022-11-20T00:12:44.078Z,59.82
2022-11-20T00:15:11.143Z,59.88
2022-11-20T00:17:40.172Z,59.91
2022-11-20T00:20:09.115Z,60.17
2022-11-20T00:22:38.177Z,60.09
2022-11-20T00:25:04.825Z,59.68
2022-11-20T00:27:31.369Z,59.40
2022-11-20T00:30:00.078Z,59.37
2022-11-20T00:32:26.628Z,59.85
2022-11-20T00:34:53.189Z,60.04
2022-11-20T00:37:21.941Z,59.81
2022-11-20T00:39:48.718Z,59.94
2022-11-20T00:42:15.464Z,59.78
2022-11-20T00:44:42.084Z,59.53
2022-11-20T00:47:08.693Z,59.26
2022-11-20T00:49:35.369Z,58.78
2022-11-20T00:52:04.664Z,59.30
2022-11-20T00:54:33.671Z,59.57
2022-11-20T00:57:00.224Z,59.43
2022-11-20T00:59:26.811Z,59.41
2022-11-20T01:01:53.365Z,59.36
2022-11-20T01:04:22.001Z,59.57
2022-11-20T01:06:51.039Z,59.77
2022-11-20T01:09:17.671Z,59.90
2022-11-20T01:11:44.986Z,60.38
2022-11-20T01:14:12.551Z,60.68
2022-11-20T01:16:42.588Z,61.12
2022-11-20T01:19:14.800Z,61.39
2022-11-20T01:21:47.357Z,61.97
2022-11-20T01:24:15.433Z,62.03
2022-11-20T01:26:42.566Z,62.12
2022-11-20T01:29:11.916Z,61.94
2022-11-20T01:31:40.878Z,62.13
2022-11-20T01:34:08.366Z,62.32
2022-11-20T01:36:35.272Z,62.52
2022-11-20T01:39:03.443Z,62.57
2022-11-20T01:41:51.936Z,62.47
2022-11-20T01:44:19.674Z,62.24
2022-11-20T01:46:59.158Z,62.18
2022-11-20T01:49:30.020Z,62.35
2022-11-20T01:52:03.029Z,61.89
2022-11-20T01:54:32.276Z,61.89
2022-11-20T01:56:58.802Z,61.72
2022-11-20T01:59:25.614Z,61.80
2022-11-20T02:01:52.373Z,61.84
2022-11-20T02:04:18.970Z,62.02
2022-11-20T02:06:48.981Z,62.26
2022-11-20T02:09:16.047Z,62.38
2022-11-20T02:11:45.067Z,62.24
2022-11-20T02:14:11.647Z,62.40
2022-11-20T02:16:41.738Z,62.35
2022-11-20T02:19:09.162Z,62.11
2022-11-20T02:21:37.193Z,62.26
2022-11-20T02:24:15.315Z,62.09
2022-11-20T02:26:44.936Z,62.36
2022-11-20T02:29:11.553Z,61.96
2022-11-20T02:31:44.607Z,61.85
2022-11-20T02:34:14.128Z,61.90
2022-11-20T02:36:41.048Z,61.57
2022-11-20T02:39:07.599Z,61.63
2022-11-20T02:41:37.736Z,61.54
2022-11-20T02:44:06.754Z,61.70
2022-11-20T02:46:35.798Z,61.44
2022-11-20T02:49:05.163Z,61.54
2022-11-20T02:51:32.269Z,61.27
2022-11-20T02:53:58.829Z,60.74
2022-11-20T02:56:25.444Z,61.19
2022-11-20T02:58:52.040Z,61.42
2022-11-20T03:01:18.603Z,60.86
2022-11-20T03:03:45.270Z,61.04
2022-11-20T03:06:12.060Z,61.14
2022-11-20T03:08:38.653Z,61.08
2022-11-20T03:11:08.149Z,61.22
2022-11-20T03:13:35.118Z,61.08
2022-11-20T03:16:28.201Z,61.10
2022-11-20T03:18:54.792Z,61.06
2022-11-20T03:21:21.458Z,61.30
2022-11-20T03:23:50.045Z,60.76
2022-11-20T03:26:18.320Z,60.30
2022-11-20T03:28:49.148Z,60.64
2022-11-20T03:31:16.337Z,60.72
2022-11-20T03:33:43.135Z,60.18
2022-11-20T03:36:10.511Z,60.39
2022-11-20T03:38:37.321Z,60.59
2022-11-20T03:41:04.645Z,60.35
2022-11-20T03:43:31.250Z,60.27
2022-11-20T03:45:57.803Z,60.26
2022-11-20T03:48:24.418Z,60.14
2022-11-20T03:50:53.381Z,59.91
2022-11-20T03:53:22.700Z,59.91
2022-11-20T03:55:52.410Z,59.85
2022-11-20T03:58:19.240Z,60.22
2022-11-20T04:00:50.630Z,59.92
2022-11-20T04:03:17.420Z,60.02
2022-11-20T04:05:44.057Z,59.45
2022-11-20T04:08:10.694Z,59.92
2022-11-20T04:10:39.606Z,60.22
2022-11-20T04:13:06.146Z,60.30
2022-11-20T04:15:38.130Z,60.42
2022-11-20T04:18:07.824Z,60.65
2022-11-20T04:20:34.401Z,60.96
2022-11-20T04:23:03.390Z,61.53
2022-11-20T04:25:32.488Z,61.29
2022-11-20T04:28:01.226Z,61.53
2022-11-20T04:30:30.682Z,61.76
2022-11-20T04:32:57.382Z,61.15
2022-11-20T04:35:23.895Z,61.06
2022-11-20T04:37:53.145Z,61.02
2022-11-20T04:40:19.821Z,60.94
2022-11-20T04:42:46.317Z,60.90
2022-11-20T04:45:12.815Z,61.10
2022-11-20T04:47:42.277Z,61.32
2022-11-20T04:50:09.112Z,61.26
2022-11-20T04:52:35.658Z,61.24
2022-11-20T04:55:02.163Z,60.82
2022-11-20T04:57:29.647Z,60.73
2022-11-20T04:59:56.196Z,60.53
2022-11-20T05:02:22.944Z,60.53
2022-11-20T05:04:51.878Z,60.93
2022-11-20T05:07:20.472Z,61.05
2022-11-20T05:09:47.052Z,60.87
2022-11-20T05:12:13.546Z,60.64
2022-11-20T05:14:42.555Z,60.70
2022-11-20T05:17:11.070Z,60.72
2022-11-20T05:19:39.731Z,60.88
2022-11-20T05:22:06.776Z,60.43
2022-11-20T05:24:38.021Z,60.18
2022-11-20T05:27:07.115Z,60.26
2022-11-20T05:29:36.073Z,60.47
2022-11-20T05:32:02.573Z,60.08
2022-11-20T05:34:29.101Z,60.30
2022-11-20T05:36:58.706Z,60.61
2022-11-20T05:39:25.275Z,60.47
2022-11-20T05:42:11.842Z,60.57
2022-11-20T05:44:38.523Z,60.73
2022-11-20T05:47:05.147Z,60.52
2022-11-20T05:49:34.119Z,60.51
2022-11-20T05:52:03.163Z,60.56
2022-11-20T05:54:29.701Z,60.33
2022-11-20T05:56:56.474Z,60.33
2022-11-20T05:59:23.285Z,60.65
2022-11-20T06:01:50.048Z,60.62
2022-11-20T06:04:19.067Z,60.38
2022-11-20T06:06:45.693Z,59.69
2022-11-20T06:09:12.254Z,60.35
2022-11-20T06:11:38.881Z,59.92
2022-11-20T06:14:05.532Z,60.16
2022-11-20T06:16:32.234Z,60.04
2022-11-20T06:18:58.852Z,60.13
2022-11-20T06:21:25.408Z,60.23
2022-11-20T06:23:55.378Z,60.11
2022-11-20T06:26:22.936Z,59.87
2022-11-20T06:28:52.596Z,59.34
2022-11-20T06:31:20.134Z,59.62
2022-11-20T06:33:49.297Z,59.86
2022-11-20T06:36:17.121Z,59.39
2022-11-20T06:38:43.767Z,59.75
2022-11-20T06:41:13.580Z,59.80
2022-11-20T06:43:42.476Z,59.56
2022-11-20T06:46:14.714Z,59.48
2022-11-20T06:48:41.485Z,59.68
2022-11-20T06:51:08.574Z,59.59
2022-11-20T06:53:37.465Z,59.45
2022-11-20T06:56:06.489Z,59.38
2022-11-20T06:58:33.776Z,59.22
2022-11-20T07:01:03.554Z,59.55
2022-11-20T07:03:32.537Z,59.49
2022-11-20T07:05:59.297Z,59.51
2022-11-20T07:08:28.165Z,59.32
2022-11-20T07:10:58.020Z,59.40
2022-11-20T07:13:27.436Z,59.68
2022-11-20T07:15:54.047Z,59.13
2022-11-20T07:18:20.635Z,59.11
2022-11-20T07:20:49.473Z,59.43
2022-11-20T07:23:16.001Z,59.39
2022-11-20T07:25:42.593Z,59.48
2022-11-20T07:28:11.723Z,59.65
2022-11-20T07:30:38.923Z,59.60
2022-11-20T07:33:05.444Z,59.65
2022-11-20T07:35:32.032Z,60.18
2022-11-20T07:37:58.586Z,60.35
2022-11-20T07:40:27.702Z,60.39
2022-11-20T07:42:57.101Z,60.11
2022-11-20T07:45:26.439Z,60.36
2022-11-20T07:47:57.901Z,60.58
2022-11-20T07:50:24.510Z,59.72
2022-11-20T07:52:53.487Z,60.60
2022-11-20T07:55:20.060Z,59.26
2022-11-20T07:57:46.648Z,59.96
2022-11-20T08:00:13.535Z,60.55
2022-11-20T08:02:43.403Z,60.32
2022-11-20T08:05:10.234Z,60.16
2022-11-20T08:07:42.350Z,60.55
2022-11-20T08:10:15.467Z,59.88
2022-11-20T08:13:03.407Z,59.86
2022-11-20T08:15:32.901Z,60.14
2022-11-20T08:18:30.617Z,59.87
2022-11-20T08:20:55.087Z,59.86
2022-11-20T08:23:21.622Z,59.51
2022-11-20T08:25:50.300Z,58.88
2022-11-20T08:28:21.632Z,58.01
2022-11-20T08:30:49.144Z,57.58
2022-11-20T08:33:18.661Z,56.65
2022-11-20T08:35:48.127Z,57.31
2022-11-20T08:38:17.474Z,57.70
2022-11-20T08:41:04.267Z,57.64
2022-11-20T08:43:30.904Z,57.59
2022-11-20T08:45:58.276Z,56.43
2022-11-20T08:48:24.829Z,56.24
2022-11-20T08:50:51.373Z,57.51
2022-11-20T08:53:20.353Z,57.96
2022-11-20T08:55:49.800Z,57.54
2022-11-20T08:58:16.339Z,57.54
2022-11-20T09:00:42.924Z,56.64
2022-11-20T09:03:09.549Z,56.88
2022-11-20T09:05:36.197Z,56.36
2022-11-20T09:08:02.773Z,57.21
2022-11-20T09:10:29.475Z,57.40
2022-11-20T09:12:58.629Z,57.13
2022-11-20T09:15:25.479Z,57.42
2022-11-20T09:17:56.787Z,57.64
2022-11-20T09:20:23.476Z,57.88
2022-11-20T09:22:50.065Z,56.75
2022-11-20T09:25:19.607Z,57.93
2022-11-20T09:27:48.659Z,58.01
2022-11-20T09:30:17.822Z,58.71
2022-11-20T09:32:44.411Z,58.31
2022-11-20T09:35:11.983Z,58.04
2022-11-20T09:37:43.573Z,57.79
2022-11-20T09:40:22.656Z,58.15
2022-11-20T09:42:55.377Z,57.76
2022-11-20T09:45:21.964Z,57.48
2022-11-20T09:48:05.995Z,57.70
2022-11-20T09:50:33.908Z,57.44
2022-11-20T09:53:19.337Z,57.19
2022-11-20T09:55:46.143Z,57.17
2022-11-20T09:58:33.129Z,56.32
2022-11-20T10:01:01.723Z,56.88
2022-11-20T10:03:36.773Z,56.14
2022-11-20T10:06:03.457Z,56.77
2022-11-20T10:08:33.292Z,56.22
2022-11-20T10:11:02.202Z,56.30
2022-11-20T10:14:11.167Z,57.12
2022-11-20T10:16:47.288Z,56.00
2022-11-20T10:19:13.867Z,55.28
2022-11-20T10:21:40.615Z,55.71
2022-11-20T10:24:25.798Z,54.88
2022-11-20T10:26:58.517Z,53.95
2022-11-20T10:29:34.732Z,53.52
2022-11-20T10:32:05.661Z,54.80
2022-11-20T10:34:44.471Z,54.60
2022-11-20T10:37:13.293Z,53.07
2022-11-20T10:39:52.034Z,53.22
2022-11-20T10:42:21.976Z,53.55
2022-11-20T10:45:05.692Z,53.29
2022-11-20T10:47:35.291Z,51.59
2022-11-20T10:50:06.427Z,51.84
2022-11-20T10:52:33.157Z,51.68
2022-11-20T10:55:13.264Z,49.79
2022-11-20T10:58:04.685Z,49.62
2022-11-20T11:00:36.901Z,50.58
2022-11-20T11:03:04.192Z,49.36
2022-11-20T11:06:03.753Z,51.29
2022-11-20T11:08:33.501Z,49.32
2022-11-20T11:11:00.550Z,50.84
2022-11-20T11:13:32.634Z,49.86
2022-11-20T11:15:59.423Z,50.81
2022-11-20T11:18:29.411Z,51.11
2022-11-20T11:20:57.371Z,51.27
2022-11-20T11:23:36.291Z,51.33
2022-11-20T11:26:06.533Z,52.02
2022-11-20T11:28:37.795Z,52.10
2022-11-20T11:31:06.530Z,51.24
2022-11-20T11:33:35.547Z,51.53
2022-11-20T11:36:05.869Z,51.63
2022-11-20T11:38:37.935Z,51.22
2022-11-20T11:41:05.148Z,50.89
2022-11-20T11:43:53.482Z,50.95
2022-11-20T11:46:38.867Z,51.70
2022-11-20T11:49:12.483Z,51.49
2022-11-20T11:51:41.536Z,52.05
2022-11-20T11:54:14.819Z,51.46
2022-11-20T11:56:48.267Z,50.81
2022-11-20T11:59:17.510Z,51.78
2022-11-20T12:01:45.073Z,52.87
2022-11-20T12:04:17.061Z,53.47
2022-11-20T12:06:51.034Z,53.14
2022-11-20T12:09:17.563Z,54.30
2022-11-20T12:11:51.203Z,54.61
2022-11-20T12:14:29.206Z,54.36
2022-11-20T12:16:57.874Z,54.08
2022-11-20T12:19:27.281Z,53.83
2022-11-20T12:22:05.876Z,53.21
2022-11-20T12:24:32.420Z,54.00
2022-11-20T12:27:21.943Z,54.68
2022-11-20T12:29:48.460Z,54.62
2022-11-20T12:32:34.030Z,54.90
2022-11-20T12:35:14.938Z,55.07
2022-11-20T12:37:50.792Z,54.51
2022-11-20T12:40:20.420Z,53.88
2022-11-20T12:43:24.108Z,53.92
2022-11-20T12:46:06.101Z,54.24
2022-11-20T12:48:36.645Z,54.35
2022-11-20T12:51:24.045Z,54.49
2022-11-20T12:53:50.610Z,55.54
2022-11-20T12:56:26.488Z,55.61
2022-11-20T12:58:53.083Z,55.56
2022-11-20T13:01:40.848Z,55.36
2022-11-20T13:04:16.671Z,55.83
2022-11-20T13:06:43.660Z,55.79
2022-11-20T13:09:10.309Z,56.52
2022-11-20T13:11:49.193Z,55.35
2022-11-20T13:14:48.323Z,55.31
2022-11-20T13:17:51.230Z,55.54
2022-11-20T13:20:20.367Z,55.15
2022-11-20T13:22:48.014Z,55.14
2022-11-20T13:25:23.781Z,54.62
2022-11-20T13:27:50.619Z,53.97
2022-11-20T13:30:19.345Z,53.33
2022-11-20T13:32:49.638Z,52.99
2022-11-20T13:35:24.454Z,53.61
2022-11-20T13:37:59.869Z,53.39
2022-11-20T13:40:28.929Z,53.14
2022-11-20T13:42:56.875Z,53.07
2022-11-20T13:45:29.777Z,52.88
2022-11-20T13:47:57.251Z,53.12
2022-11-20T13:50:48.086Z,53.00
2022-11-20T13:53:17.136Z,53.36
2022-11-20T13:55:52.357Z,54.14
2022-11-20T13:58:25.266Z,53.97
2022-11-20T14:00:56.415Z,54.76
2022-11-20T14:03:44.115Z,54.85
2022-11-20T14:06:15.284Z,55.46
2022-11-20T14:08:44.787Z,55.56
2022-11-20T14:11:14.819Z,55.73
2022-11-20T14:13:51.176Z,56.14
2022-11-20T14:16:25.236Z,55.58
2022-11-20T14:18:51.769Z,55.67
2022-11-20T14:21:25.621Z,55.60
2022-11-20T14:24:03.611Z,56.93
2022-11-20T14:26:32.671Z,57.41
2022-11-20T14:28:59.242Z,57.97
2022-11-20T14:31:28.629Z,58.18
2022-11-20T14:33:55.251Z,58.17
2022-11-20T14:36:23.182Z,58.08
2022-11-20T14:38:50.907Z,58.64
2022-11-20T14:41:26.334Z,59.08
2022-11-20T14:43:59.121Z,58.51
2022-11-20T14:46:25.792Z,58.84
2022-11-20T14:48:53.053Z,59.00
2022-11-20T14:51:33.161Z,59.42
2022-11-20T14:54:15.713Z,59.91
2022-11-20T14:56:57.273Z,60.05
2022-11-20T14:59:27.594Z,60.41
2022-11-20T15:02:01.300Z,60.33
2022-11-20T15:04:27.950Z,60.42
2022-11-20T15:06:55.804Z,61.26
2022-11-20T15:09:22.622Z,61.26
2022-11-20T15:11:59.617Z,61.47
2022-11-20T15:14:28.874Z,61.58
2022-11-20T15:16:55.587Z,61.76
2022-11-20T15:19:23.386Z,61.65
2022-11-20T15:21:51.722Z,61.19
2022-11-20T15:24:18.414Z,61.57
2022-11-20T15:26:45.867Z,62.04
2022-11-20T15:29:15.795Z,62.12
2022-11-20T15:31:44.320Z,62.22
2022-11-20T15:34:13.619Z,62.43
2022-11-20T15:36:43.222Z,62.43
2022-11-20T15:39:12.616Z,62.18
2022-11-20T15:41:41.594Z,62.39
2022-11-20T15:44:08.138Z,62.45
2022-11-20T15:46:39.561Z,62.03
2022-11-20T15:49:06.479Z,62.38
2022-11-20T15:51:33.083Z,62.45
2022-11-20T15:53:59.786Z,62.30
2022-11-20T15:56:26.659Z,62.86
2022-11-20T15:58:53.280Z,62.71
2022-11-20T16:01:23.369Z,62.74
2022-11-20T16:03:50.158Z,62.65
2022-11-20T16:06:22.125Z,63.07
2022-11-20T16:08:54.156Z,63.36
2022-11-20T16:11:20.764Z,63.32
2022-11-20T16:14:06.023Z,63.20
2022-11-20T16:16:36.403Z,63.08
2022-11-20T16:19:07.758Z,62.95
2022-11-20T16:21:35.456Z,63.07
2022-11-20T16:24:05.925Z,62.66
2022-11-20T16:26:32.691Z,62.36
2022-11-20T16:28:59.591Z,62.11
2022-11-20T16:31:26.139Z,61.81
2022-11-20T16:33:56.749Z,61.88
2022-11-20T16:36:26.771Z,61.96
2022-11-20T16:38:54.308Z,61.84
2022-11-20T16:41:23.544Z,61.90
2022-11-20T16:43:54.098Z,61.91
2022-11-20T16:46:21.924Z,61.73
2022-11-20T16:49:12.256Z,61.56
2022-11-20T16:51:43.609Z,61.65
2022-11-20T16:54:16.488Z,61.88
2022-11-20T16:56:47.887Z,61.83
2022-11-20T16:59:14.462Z,62.01
2022-11-20T17:01:46.361Z,61.83
2022-11-20T17:04:19.595Z,62.17
2022-11-20T17:06:46.323Z,62.13
2022-11-20T17:09:13.156Z,62.18
2022-11-20T17:11:44.265Z,62.25
2022-11-20T17:14:11.382Z,62.14
2022-11-20T17:16:43.133Z,62.05
2022-11-20T17:19:09.860Z,62.04
2022-11-20T17:21:39.740Z,62.01
2022-11-20T17:24:09.911Z,62.39
2022-11-20T17:26:40.653Z,63.14
2022-11-20T17:29:14.292Z,63.53
2022-11-20T17:31:41.086Z,63.45
2022-11-20T17:34:09.075Z,63.12
2022-11-20T17:36:44.886Z,63.39
2022-11-20T17:39:13.010Z,63.13
2022-11-20T17:41:42.288Z,63.01
2022-11-20T17:44:09.802Z,63.07
2022-11-20T17:46:36.419Z,63.08
2022-11-20T17:49:03.618Z,63.22
2022-11-20T17:51:35.281Z,63.43
2022-11-20T17:54:05.986Z,63.36
2022-11-20T17:56:54.951Z,63.51
2022-11-20T17:59:24.419Z,63.75
2022-11-20T18:02:03.472Z,63.72
2022-11-20T18:04:32.068Z,63.68
2022-11-20T18:07:09.488Z,64.28
2022-11-20T18:09:36.759Z,64.07
2022-11-20T18:12:08.054Z,64.36
2022-11-20T18:14:45.093Z,64.27
2022-11-20T18:17:17.251Z,64.31
2022-11-20T18:20:07.173Z,64.46
2022-11-20T18:22:36.828Z,64.18
2022-11-20T18:25:03.548Z,64.14
2022-11-20T18:27:35.980Z,64.13
2022-11-20T18:30:05.073Z,64.10
2022-11-20T18:32:31.909Z,64.17
2022-11-20T18:34:59.194Z,64.25
2022-11-20T18:37:26.077Z,64.08
2022-11-20T18:39:53.215Z,63.84
2022-11-20T18:42:43.292Z,63.89
2022-11-20T18:45:12.618Z,63.95
2022-11-20T18:47:40.227Z,64.09
2022-11-20T18:50:09.713Z,63.89
2022-11-20T18:52:44.536Z,64.08
2022-11-20T18:55:13.799Z,64.18
2022-11-20T18:57:40.446Z,64.21
2022-11-20T19:00:12.946Z,64.22
2022-11-20T19:02:43.556Z,64.34
2022-11-20T19:05:13.460Z,64.65
2022-11-20T19:07:40.635Z,64.47
2022-11-20T19:10:07.787Z,64.38
2022-11-20T19:12:34.378Z,64.18
2022-11-20T19:15:01.007Z,64.26
2022-11-20T19:17:27.595Z,64.10
2022-11-20T19:19:55.110Z,64.07
2022-11-20T19:22:21.942Z,63.92
2022-11-20T19:24:48.546Z,63.87
2022-11-20T19:27:15.178Z,64.16
2022-11-20T19:29:44.217Z,64.27
2022-11-20T19:32:13.161Z,64.22
2022-11-20T19:34:39.723Z,64.29
2022-11-20T19:37:06.419Z,65.15
2022-11-20T19:39:36.324Z,66.89
2022-11-20T19:42:02.857Z,68.05
2022-11-20T19:44:32.949Z,68.21
2022-11-20T19:47:04.375Z,68.27
2022-11-20T19:49:34.192Z,67.98
2022-11-20T19:52:03.241Z,67.62
2022-11-20T19:54:31.966Z,67.11
2022-11-20T19:56:58.584Z,66.82
2022-11-20T19:59:25.572Z,66.77
2022-11-20T20:01:54.858Z,66.78
2022-11-20T20:04:21.526Z,66.59
2022-11-20T20:06:48.126Z,66.61
2022-11-20T20:09:20.348Z,66.74
2022-11-20T20:11:47.280Z,66.73
2022-11-20T20:14:14.796Z,66.70
2022-11-20T20:16:43.833Z,66.47
2022-11-20T20:19:14.290Z,66.13
2022-11-20T20:21:44.047Z,65.93
2022-11-20T20:24:11.042Z,65.82
2022-11-20T20:26:37.802Z,65.98
2022-11-20T20:29:04.304Z,65.93
2022-11-20T20:31:31.449Z,65.90
2022-11-20T20:34:00.398Z,65.65
2022-11-20T20:36:27.167Z,65.66
2022-11-20T20:38:57.239Z,65.87
2022-11-20T20:41:26.290Z,65.63
2022-11-20T20:44:11.551Z,65.63
2022-11-20T20:46:40.906Z,65.94
2022-11-20T20:49:07.641Z,65.91
2022-11-20T20:51:34.529Z,66.12
2022-11-20T20:54:03.725Z,66.93
2022-11-20T20:56:30.277Z,66.89
2022-11-20T20:58:59.323Z,66.94
2022-11-20T21:01:28.983Z,66.72
2022-11-20T21:04:02.403Z,66.79
2022-11-20T21:06:33.773Z,66.91
2022-11-20T21:09:00.447Z,67.17
2022-11-20T21:11:29.441Z,67.35
2022-11-20T21:13:58.628Z,67.33
2022-11-20T21:16:25.375Z,67.18
2022-11-20T21:18:51.902Z,67.02
2022-11-20T21:21:37.037Z,66.97
2022-11-20T21:24:03.881Z,66.95
2022-11-20T21:26:30.421Z,66.85
2022-11-20T21:28:59.413Z,66.78
2022-11-20T21:31:29.967Z,66.75
2022-11-20T21:33:56.616Z,67.27
2022-11-20T21:36:26.554Z,67.30
2022-11-20T21:38:56.078Z,67.10
2022-11-20T21:41:26.348Z,67.07
2022-11-20T21:44:16.278Z,66.93
2022-11-20T21:46:41.343Z,66.80
2022-11-20T21:49:08.004Z,67.26
2022-11-20T21:51:34.834Z,67.02
2022-11-20T21:54:04.010Z,67.16
2022-11-20T21:56:30.656Z,67.31
2022-11-20T21:58:59.581Z,67.26
2022-11-20T22:01:31.655Z,67.68
2022-11-20T22:03:59.132Z,67.85
2022-11-20T22:06:26.173Z,67.82
2022-11-20T22:08:52.961Z,67.94
2022-11-20T22:11:20.621Z,67.86
2022-11-20T22:14:05.937Z,67.67
2022-11-20T22:16:36.061Z,67.60
2022-11-20T22:19:02.871Z,67.81
2022-11-20T22:21:30.076Z,68.26
2022-11-20T22:23:56.963Z,68.47
2022-11-20T22:26:24.440Z,68.32
2022-11-20T22:28:53.941Z,68.08
2022-11-20T22:31:20.998Z,68.03
2022-11-20T22:33:50.354Z,67.87
2022-11-20T22:36:18.022Z,68.10
2022-11-20T22:38:44.618Z,68.56
2022-11-20T22:41:17.271Z,68.56
2022-11-20T22:43:44.497Z,68.58
2022-11-20T22:46:11.167Z,68.95
2022-11-20T22:48:43.944Z,68.95
2022-11-20T22:51:14.173Z,68.61
2022-11-20T22:53:43.543Z,68.61
2022-11-20T22:56:12.674Z,68.87
2022-11-20T22:58:43.121Z,68.64
2022-11-20T23:01:09.640Z,68.45
2022-11-20T23:03:36.484Z,68.34
2022-11-20T23:06:03.026Z,68.05
2022-11-20T23:08:32.412Z,67.95
2022-11-20T23:11:05.200Z,67.76
2022-11-20T23:13:31.751Z,67.77
2022-11-20T23:16:17.500Z,67.99
2022-11-20T23:18:46.465Z,67.86
2022-11-20T23:21:18.291Z,67.95
2022-11-20T23:23:50.806Z,67.84
2022-11-20T23:26:18.621Z,67.99
2022-11-20T23:28:47.539Z,67.94
2022-11-20T23:31:17.447Z,68.01
2022-11-20T23:33:46.711Z,67.90
2022-11-20T23:36:13.650Z,67.66
2022-11-20T23:38:40.237Z,67.88
2022-11-20T23:41:06.911Z,67.79
2022-11-20T23:43:33.538Z,67.68
2022-11-20T23:46:03.336Z,67.57
2022-11-20T23:48:33.307Z,67.76
2022-11-20T23:51:03.188Z,67.95
2022-11-20T23:53:29.959Z,67.84
2022-11-20T23:55:57.558Z,67.88
2022-11-20T23:58:30.828Z,67.75
